Time;durP1;ratioP1;P1;durP2;ratioP2;P2;SDS_P1;SDS_P2;PMS_P1;PMS_P2;Temp;Humidity;BMP_temperature;BMP_pressure;BME280_temperature;BME280_humidity;BME280_pressure;Samples;Min_cycle;Max_cycle;Signal;HPM_P1;HPM_P2
2022/01/16 00:00:47;;;;;;;139.10;36.75;;;1.90;99.90;;;;;;4979875;28;20022;-85
2022/01/16 00:05:56;;;;;;;116.78;36.33;;;1.90;99.90;;;;;;4994005;28;20089;-87
2022/01/16 00:08:22;;;;;;;109.85;35.17;;;1.90;99.90;;;;;;4975692;28;20038;-87
2022/01/16 00:10:48;;;;;;;105.93;35.50;;;1.90;99.90;;;;;;4993098;28;20030;-88
2022/01/16 00:13:13;;;;;;;113.45;35.80;;;1.90;99.90;;;;;;4991719;28;20030;-87
2022/01/16 00:15:39;;;;;;;112.60;36.08;;;1.90;99.90;;;;;;4975974;28;20072;-88
2022/01/16 00:20:31;;;;;;;95.35;34.28;;;1.90;99.90;;;;;;4993540;28;20022;-85
2022/01/16 00:22:58;;;;;;;102.45;32.88;;;1.90;99.90;;;;;;4976439;28;20034;-86
2022/01/16 00:25:24;;;;;;;112.30;38.00;;;1.80;99.90;;;;;;4975767;28;20046;-87
2022/01/16 00:27:50;;;;;;;108.55;34.30;;;1.80;99.90;;;;;;4975919;28;20045;-88
2022/01/16 00:30:17;;;;;;;105.45;35.13;;;1.80;99.90;;;;;;4975620;28;20026;-87
2022/01/16 00:32:43;;;;;;;110.72;35.30;;;1.80;99.90;;;;;;4976023;28;20030;-88
2022/01/16 00:35:09;;;;;;;130.07;34.72;;;1.80;99.90;;;;;;4975890;28;20037;-88
2022/01/16 00:37:34;;;;;;;108.05;36.38;;;1.80;99.90;;;;;;4979944;28;20045;-87
2022/01/16 00:40:00;;;;;;;99.68;33.75;;;1.80;99.90;;;;;;4976106;28;20026;-86
2022/01/16 00:42:26;;;;;;;119.20;37.30;;;1.80;99.90;;;;;;4975086;28;20064;-87
2022/01/16 00:44:51;;;;;;;103.50;35.58;;;1.80;99.90;;;;;;4975551;28;20031;-88
2022/01/16 00:47:17;;;;;;;132.77;35.83;;;1.80;99.90;;;;;;4974952;28;20049;-85
2022/01/16 00:49:43;;;;;;;123.05;33.35;;;1.80;99.90;;;;;;4974998;28;20027;-86
2022/01/16 00:52:09;;;;;;;114.22;35.00;;;1.80;99.90;;;;;;4976634;28;20034;-86
2022/01/16 00:54:36;;;;;;;132.60;35.83;;;1.80;99.90;;;;;;4980280;28;20049;-86
2022/01/16 00:57:02;;;;;;;123.20;35.17;;;1.80;99.90;;;;;;4979063;28;20026;-86
2022/01/16 00:59:28;;;;;;;135.13;33.53;;;1.80;99.90;;;;;;4979176;28;20045;-86
2022/01/16 01:01:53;;;;;;;129.85;37.85;;;1.80;99.90;;;;;;4995807;28;20037;-86
2022/01/16 01:04:19;;;;;;;106.22;30.70;;;1.80;99.90;;;;;;4979589;28;20463;-86
2022/01/16 01:06:48;;;;;;;118.45;35.50;;;1.80;99.90;;;;;;4978433;28;20050;-86
2022/01/16 01:09:14;;;;;;;154.35;38.03;;;1.80;99.90;;;;;;4979760;28;20033;-86
2022/01/16 01:11:42;;;;;;;137.05;36.75;;;1.70;99.90;;;;;;4979333;28;20032;-86
2022/01/16 01:14:16;;;;;;;114.88;36.25;;;1.80;99.90;;;;;;4996854;28;20475;-85
2022/01/16 01:16:54;;;;;;;123.55;36.70;;;1.70;99.90;;;;;;4979410;28;20033;-86
2022/01/16 01:19:31;;;;;;;134.27;38.13;;;1.70;99.90;;;;;;4978760;28;20026;-85
2022/01/16 01:21:57;;;;;;;130.65;37.95;;;1.70;99.90;;;;;;4979302;28;20030;-86
2022/01/16 01:24:23;;;;;;;114.38;34.53;;;1.70;99.90;;;;;;4973629;28;20050;-86
2022/01/16 01:26:59;;;;;;;113.50;32.50;;;1.70;99.90;;;;;;4976494;28;20027;-86
2022/01/16 01:29:28;;;;;;;130.05;35.08;;;1.70;99.90;;;;;;4976793;28;20118;-86
2022/01/16 01:31:54;;;;;;;118.28;37.40;;;1.70;99.90;;;;;;4981935;28;20129;-86
2022/01/16 01:34:19;;;;;;;124.05;36.80;;;1.70;99.90;;;;;;4975122;28;20105;-86
2022/01/16 01:36:48;;;;;;;135.75;39.13;;;1.70;99.90;;;;;;4975400;28;20039;-86
2022/01/16 01:39:21;;;;;;;127.80;40.08;;;1.70;99.90;;;;;;4975320;28;20031;-86
2022/01/16 01:41:50;;;;;;;129.55;38.38;;;1.70;99.90;;;;;;4989043;28;20034;-85
2022/01/16 01:52:29;;;;;;;153.13;37.33;;;1.70;99.90;;;;;;4976716;28;20049;-87
2022/01/16 01:54:54;;;;;;;138.38;39.97;;;1.60;99.90;;;;;;4974947;28;20023;-87
2022/01/16 01:57:20;;;;;;;147.60;44.63;;;1.60;99.90;;;;;;4975914;28;20038;-87
2022/01/16 01:59:46;;;;;;;137.38;42.47;;;1.60;99.90;;;;;;4991608;28;20030;-87
2022/01/16 02:02:11;;;;;;;143.18;42.15;;;1.60;99.90;;;;;;4975828;28;20026;-87
2022/01/16 02:04:37;;;;;;;133.40;39.03;;;1.60;99.90;;;;;;4974382;28;20023;-86
2022/01/16 02:07:03;;;;;;;118.57;37.83;;;1.60;99.90;;;;;;4974315;28;20049;-86
2022/01/16 02:09:30;;;;;;;130.90;40.85;;;1.60;99.90;;;;;;4988187;28;20051;-86
2022/01/16 02:11:56;;;;;;;161.23;42.35;;;1.60;99.90;;;;;;4976256;28;20038;-86
2022/01/16 02:14:30;;;;;;;148.57;41.97;;;1.60;99.90;;;;;;4988231;28;20026;-87
2022/01/16 02:28:15;;;;;;;123.18;38.25;;;1.80;99.90;;;;;;4991855;28;20061;-87
2022/01/16 02:31:01;;;;;;;132.02;38.10;;;1.80;99.90;;;;;;4978467;28;20578;-87
2022/01/16 02:36:26;;;;;;;125.90;40.83;;;1.80;99.90;;;;;;4994821;28;20038;-87
2022/01/16 02:38:55;;;;;;;117.63;39.40;;;1.80;99.90;;;;;;4977813;28;20567;-87
2022/01/16 02:41:24;;;;;;;168.60;43.13;;;1.80;99.90;;;;;;4966467;28;20101;-88
2022/01/16 02:43:51;;;;;;;120.32;39.63;;;1.80;99.90;;;;;;4994618;28;20033;-87
2022/01/16 02:48:48;;;;;;;145.57;39.97;;;1.80;99.90;;;;;;4994578;28;20050;-87
2022/01/16 02:51:20;;;;;;;153.35;43.22;;;1.90;99.90;;;;;;4988421;28;20372;-87
2022/01/16 02:53:47;;;;;;;145.82;40.08;;;1.90;99.90;;;;;;4978066;28;20045;-87
2022/01/16 02:56:13;;;;;;;131.55;40.25;;;1.90;99.90;;;;;;4977707;28;20058;-87
2022/01/16 02:58:39;;;;;;;122.00;38.20;;;1.90;99.90;;;;;;4974763;28;20067;-87
2022/01/16 03:01:05;;;;;;;125.13;38.15;;;1.90;99.90;;;;;;4976426;28;20022;-88
2022/01/16 03:03:32;;;;;;;136.10;39.53;;;1.90;99.90;;;;;;4977243;28;20022;-87
2022/01/16 03:05:57;;;;;;;133.40;40.35;;;1.90;99.90;;;;;;4977017;28;20558;-87
2022/01/16 03:08:23;;;;;;;150.82;40.78;;;2.00;99.90;;;;;;4977428;28;20188;-87
2022/01/16 03:11:08;;;;;;;141.32;38.85;;;2.00;99.90;;;;;;4993977;28;20030;-87
2022/01/16 03:13:34;;;;;;;148.38;38.97;;;2.00;99.90;;;;;;4977538;28;20026;-87
2022/01/16 03:16:00;;;;;;;135.85;40.60;;;2.00;99.90;;;;;;4977115;28;20023;-87
2022/01/16 03:23:35;;;;;;;185.30;38.63;;;2.10;99.90;;;;;;4994089;28;20037;-88
2022/01/16 03:26:00;;;;;;;141.43;38.55;;;2.10;99.90;;;;;;4979347;28;20109;-88
2022/01/16 03:28:26;;;;;;;138.38;38.05;;;2.10;99.90;;;;;;4994068;28;20486;-88
2022/01/16 03:30:54;;;;;;;143.30;37.45;;;2.10;99.90;;;;;;4977546;28;20037;-88
2022/01/16 03:33:20;;;;;;;139.48;38.13;;;2.10;99.90;;;;;;4993420;28;20062;-87
2022/01/16 03:35:47;;;;;;;148.90;40.13;;;2.10;99.90;;;;;;4976740;28;20037;-87
2022/01/16 03:38:14;;;;;;;144.50;39.72;;;2.20;99.90;;;;;;4976784;28;20034;-87
2022/01/16 03:40:39;;;;;;;137.23;36.05;;;2.20;99.90;;;;;;4976787;28;20022;-87
2022/01/16 03:43:14;;;;;;;136.75;37.72;;;2.20;99.90;;;;;;4976768;28;20321;-88
2022/01/16 03:45:45;;;;;;;122.35;38.20;;;2.20;99.90;;;;;;4976227;28;20022;-87
2022/01/16 03:48:11;;;;;;;131.73;41.85;;;2.20;99.90;;;;;;4976233;28;20499;-87
2022/01/16 03:50:37;;;;;;;135.23;38.55;;;2.20;99.90;;;;;;4975701;28;20034;-88
2022/01/16 03:53:03;;;;;;;120.63;40.33;;;2.20;99.90;;;;;;4993724;28;20031;-87
2022/01/16 03:55:29;;;;;;;132.82;39.90;;;2.20;99.90;;;;;;4976082;28;20026;-87
2022/01/16 03:57:55;;;;;;;131.02;39.20;;;2.20;99.90;;;;;;4976588;28;20034;-88
2022/01/16 04:00:20;;;;;;;128.77;41.70;;;2.30;99.90;;;;;;4992031;28;20018;-88
2022/01/16 04:02:46;;;;;;;130.20;40.88;;;2.30;99.90;;;;;;4976395;28;20053;-87
2022/01/16 04:05:12;;;;;;;134.50;41.75;;;2.30;99.90;;;;;;4976283;28;20117;-88
2022/01/16 04:07:37;;;;;;;130.40;43.22;;;2.30;99.90;;;;;;4976234;28;20072;-87
2022/01/16 04:10:08;;;;;;;126.25;40.75;;;2.20;99.90;;;;;;4976484;28;20113;-88
2022/01/16 04:12:35;;;;;;;123.78;40.33;;;2.30;99.90;;;;;;4975853;28;20482;-88
2022/01/16 04:17:27;;;;;;;129.45;42.38;;;2.30;99.90;;;;;;4993337;28;20102;-87
2022/01/16 04:19:53;;;;;;;125.10;43.53;;;2.30;99.90;;;;;;4976044;28;20132;-88
2022/01/16 04:22:19;;;;;;;144.43;44.85;;;2.30;99.90;;;;;;4975442;28;20020;-88
2022/01/16 04:24:45;;;;;;;126.05;43.08;;;2.30;99.90;;;;;;4980939;28;20104;-88
2022/01/16 04:27:12;;;;;;;133.73;43.42;;;2.30;99.90;;;;;;4975142;28;20042;-88
2022/01/16 04:29:38;;;;;;;136.68;45.05;;;2.30;99.90;;;;;;4967224;28;20054;-88
2022/01/16 04:32:05;;;;;;;129.38;43.50;;;2.30;99.90;;;;;;4975361;28;20080;-88
2022/01/16 04:34:30;;;;;;;134.32;45.58;;;2.20;99.90;;;;;;4976713;28;20482;-88
2022/01/16 04:36:56;;;;;;;149.05;47.28;;;2.20;99.90;;;;;;4975718;28;20038;-88
2022/01/16 04:39:30;;;;;;;139.68;47.58;;;2.20;99.90;;;;;;4975718;28;20022;-88
2022/01/16 04:44:40;;;;;;;150.73;47.42;;;2.20;99.90;;;;;;4993706;28;20501;-87
2022/01/16 04:47:07;;;;;;;146.65;47.15;;;2.30;99.90;;;;;;4975567;28;20046;-87
2022/01/16 04:49:32;;;;;;;153.88;48.22;;;2.30;99.90;;;;;;4975745;28;20026;-87
2022/01/16 04:51:58;;;;;;;147.23;47.80;;;2.30;99.90;;;;;;4979558;28;20117;-87
2022/01/16 04:54:24;;;;;;;134.27;45.53;;;2.30;99.90;;;;;;4975584;28;20025;-87
2022/01/16 04:56:50;;;;;;;141.20;47.38;;;2.30;99.90;;;;;;4975733;28;20442;-88
2022/01/16 04:59:16;;;;;;;131.65;43.30;;;2.20;99.90;;;;;;4970330;28;20034;-88
2022/01/16 05:01:41;;;;;;;140.05;45.13;;;2.20;99.90;;;;;;4976404;28;20446;-88
2022/01/16 05:04:08;;;;;;;145.45;47.15;;;2.20;99.90;;;;;;4974953;28;20517;-87
2022/01/16 05:06:34;;;;;;;136.70;47.72;;;2.20;99.90;;;;;;4975092;28;20026;-87
2022/01/16 05:08:59;;;;;;;140.27;47.35;;;2.20;99.90;;;;;;4977312;28;20034;-87
2022/01/16 05:11:26;;;;;;;139.23;46.30;;;2.10;99.90;;;;;;4974283;28;20026;-89
2022/01/16 05:16:37;;;;;;;135.48;46.13;;;2.10;99.90;;;;;;4992930;28;20431;-89
2022/01/16 05:19:09;;;;;;;134.05;46.20;;;2.10;99.90;;;;;;4985520;28;20027;-88
2022/01/16 05:21:36;;;;;;;139.20;47.78;;;2.10;99.90;;;;;;4974080;28;20027;-88
2022/01/16 05:24:05;;;;;;;139.70;48.85;;;2.10;99.90;;;;;;4974098;28;20042;-88
2022/01/16 05:26:31;;;;;;;130.98;48.85;;;2.10;99.90;;;;;;4991895;28;20027;-88
2022/01/16 05:28:57;;;;;;;139.70;50.20;;;2.10;99.90;;;;;;4975282;28;20042;-88
2022/01/16 05:31:23;;;;;;;138.65;47.22;;;2.10;99.90;;;;;;4992776;28;20057;-88
2022/01/16 05:33:49;;;;;;;133.98;49.10;;;2.10;99.90;;;;;;4969749;28;20058;-89
2022/01/16 05:36:15;;;;;;;133.10;47.22;;;2.20;99.90;;;;;;4973932;28;20054;-88
2022/01/16 05:38:41;;;;;;;126.57;47.38;;;2.20;99.90;;;;;;4975794;28;20055;-89
2022/01/16 05:41:07;;;;;;;133.80;47.25;;;2.20;99.90;;;;;;4971989;28;20102;-88
2022/01/16 05:43:32;;;;;;;121.57;45.92;;;2.20;99.90;;;;;;4978748;28;20104;-89
2022/01/16 05:45:58;;;;;;;130.45;48.33;;;2.20;99.90;;;;;;4999624;28;20029;-88
2022/01/16 05:48:23;;;;;;;133.93;48.45;;;2.30;99.90;;;;;;4977633;28;20034;-88
2022/01/16 05:50:49;;;;;;;137.40;48.85;;;2.30;99.90;;;;;;4979433;28;20030;-88
2022/01/16 05:53:14;;;;;;;124.18;45.45;;;2.30;99.90;;;;;;4976953;28;20026;-88
2022/01/16 05:55:41;;;;;;;134.38;51.15;;;2.30;99.90;;;;;;4978320;28;20030;-88
2022/01/16 05:58:08;;;;;;;132.13;51.55;;;2.30;99.90;;;;;;4978191;28;20037;-88
2022/01/16 06:00:36;;;;;;;138.15;51.50;;;2.40;99.90;;;;;;4978246;28;20022;-88
2022/01/16 06:03:01;;;;;;;133.20;50.45;;;2.30;99.90;;;;;;4978251;28;20030;-88
2022/01/16 06:05:27;;;;;;;137.55;52.60;;;2.40;99.90;;;;;;4977960;28;20541;-88
2022/01/16 06:07:58;;;;;;;131.98;51.17;;;2.40;99.90;;;;;;4977490;28;20069;-88
2022/01/16 06:10:24;;;;;;;131.45;51.38;;;2.40;99.90;;;;;;4974370;28;20026;-88
2022/01/16 06:12:51;;;;;;;130.13;50.25;;;2.40;99.90;;;;;;4996023;28;20042;-87
2022/01/16 06:15:21;;;;;;;134.63;52.90;;;2.40;99.90;;;;;;4975805;28;20034;-88
2022/01/16 06:17:47;;;;;;;138.10;54.45;;;2.40;99.90;;;;;;4977711;28;20037;-88
2022/01/16 06:20:14;;;;;;;129.50;54.28;;;2.40;99.90;;;;;;4994516;28;20109;-87
2022/01/16 06:22:41;;;;;;;126.85;50.65;;;2.40;99.90;;;;;;4978063;28;20286;-88
2022/01/16 06:25:07;;;;;;;129.95;54.15;;;2.40;99.90;;;;;;4975178;28;20122;-88
2022/01/16 06:27:32;;;;;;;123.50;51.08;;;2.50;99.90;;;;;;4978170;28;20180;-89
2022/01/16 06:29:58;;;;;;;130.40;54.20;;;2.50;99.90;;;;;;4977685;28;20029;-89
2022/01/16 06:32:23;;;;;;;136.93;55.63;;;2.50;99.90;;;;;;4994402;28;20068;-88
2022/01/16 06:34:49;;;;;;;126.38;54.67;;;2.60;99.90;;;;;;4979198;28;20076;-88
2022/01/16 06:37:14;;;;;;;131.57;56.78;;;2.60;99.90;;;;;;4978892;28;20037;-88
2022/01/16 06:39:40;;;;;;;128.07;52.65;;;2.60;99.90;;;;;;4979869;28;20102;-87
2022/01/16 06:42:06;;;;;;;122.25;53.58;;;2.70;99.90;;;;;;4978601;28;20033;-87
2022/01/16 06:44:31;;;;;;;122.82;51.05;;;2.70;99.90;;;;;;4978673;28;20031;-88
2022/01/16 06:46:57;;;;;;;122.15;53.75;;;2.70;99.90;;;;;;4975626;28;20128;-87
2022/01/16 06:49:22;;;;;;;121.03;53.08;;;2.80;99.90;;;;;;4975215;28;20033;-87
2022/01/16 06:51:48;;;;;;;123.28;53.92;;;2.80;99.90;;;;;;4990009;28;20069;-88
2022/01/16 06:54:14;;;;;;;117.03;51.58;;;2.80;99.90;;;;;;4979535;28;20031;-87
2022/01/16 06:56:39;;;;;;;116.72;53.97;;;2.90;99.90;;;;;;4969876;28;20455;-87
2022/01/16 06:59:05;;;;;;;112.78;51.13;;;3.00;99.90;;;;;;4973907;28;20030;-87
2022/01/16 07:01:30;;;;;;;116.25;49.30;;;3.00;99.90;;;;;;4977860;28;20027;-87
2022/01/16 07:03:56;;;;;;;113.80;52.75;;;3.00;99.90;;;;;;4977477;28;20121;-88
2022/01/16 07:06:23;;;;;;;110.97;51.75;;;3.00;99.90;;;;;;4976816;28;20026;-88
2022/01/16 07:08:49;;;;;;;106.88;51.88;;;3.10;99.90;;;;;;4975182;28;20126;-89
2022/01/16 07:11:15;;;;;;;112.82;52.33;;;3.10;99.90;;;;;;4979966;28;20465;-87
2022/01/16 07:13:41;;;;;;;106.95;49.17;;;3.10;99.90;;;;;;4974086;28;20069;-88
2022/01/16 07:16:06;;;;;;;107.10;51.95;;;3.10;99.90;;;;;;4980441;28;20030;-88
2022/01/16 07:18:32;;;;;;;107.68;49.72;;;3.10;99.90;;;;;;4971432;28;20027;-88
2022/01/16 07:20:58;;;;;;;105.03;49.22;;;3.20;99.90;;;;;;4975329;28;20026;-87
2022/01/16 07:23:23;;;;;;;99.35;47.08;;;3.20;99.90;;;;;;4976241;28;20045;-88
2022/01/16 07:25:49;;;;;;;103.63;50.45;;;3.20;99.90;;;;;;4974019;28;20046;-89
2022/01/16 07:28:15;;;;;;;108.72;53.60;;;3.20;99.90;;;;;;4973041;28;20041;-86
2022/01/16 07:30:42;;;;;;;108.72;51.17;;;3.20;99.90;;;;;;4975985;28;20027;-87
2022/01/16 07:33:09;;;;;;;103.00;47.70;;;3.30;99.90;;;;;;4968023;28;20391;-87
2022/01/16 07:35:36;;;;;;;97.78;47.60;;;3.30;99.90;;;;;;4973671;28;20034;-88
2022/01/16 07:38:03;;;;;;;104.53;46.72;;;3.30;99.90;;;;;;4974137;28;20089;-88
2022/01/16 07:40:29;;;;;;;100.38;48.35;;;3.40;99.90;;;;;;4989111;28;20073;-88
2022/01/16 07:42:55;;;;;;;91.85;46.05;;;3.40;99.90;;;;;;4972343;28;20034;-88
2022/01/16 07:45:21;;;;;;;90.25;46.20;;;3.40;99.90;;;;;;4976326;28;20490;-87
2022/01/16 07:47:47;;;;;;;100.03;47.63;;;3.40;99.90;;;;;;4975906;28;20410;-88
2022/01/16 07:50:15;;;;;;;93.28;45.70;;;3.40;99.90;;;;;;4975651;28;20226;-88
2022/01/16 07:52:40;;;;;;;105.20;47.35;;;3.50;99.90;;;;;;4974738;28;20026;-88
2022/01/16 07:55:06;;;;;;;93.53;46.83;;;3.40;99.90;;;;;;4977476;28;20028;-88
2022/01/16 07:57:32;;;;;;;91.78;43.88;;;3.50;99.90;;;;;;4994184;28;20442;-90
2022/01/16 07:59:58;;;;;;;94.82;45.65;;;3.50;99.90;;;;;;4992745;28;20026;-89
2022/01/16 08:02:23;;;;;;;90.95;46.00;;;3.50;99.90;;;;;;4975049;28;20076;-88
2022/01/16 08:04:49;;;;;;;89.65;44.30;;;3.50;99.90;;;;;;4993310;28;20093;-87
2022/01/16 08:07:14;;;;;;;88.40;43.13;;;3.50;99.90;;;;;;4976301;28;20080;-88
2022/01/16 08:09:40;;;;;;;89.35;43.75;;;3.50;99.90;;;;;;4992251;28;20022;-87
2022/01/16 08:12:07;;;;;;;85.35;42.92;;;3.60;99.90;;;;;;4970324;28;20037;-86
2022/01/16 08:14:34;;;;;;;91.10;42.30;;;3.60;99.90;;;;;;4972666;28;20058;-88
2022/01/16 08:17:00;;;;;;;84.57;41.10;;;3.60;99.90;;;;;;4983833;28;20027;-88
2022/01/16 08:19:26;;;;;;;76.50;39.45;;;3.70;99.90;;;;;;4976114;28;20392;-87
2022/01/16 08:21:51;;;;;;;83.28;41.40;;;3.70;99.90;;;;;;4974847;28;20023;-87
2022/01/16 08:24:17;;;;;;;80.35;42.05;;;3.70;99.90;;;;;;4991241;28;20058;-89
2022/01/16 08:26:42;;;;;;;80.55;42.05;;;3.80;99.90;;;;;;4974444;28;20027;-87
2022/01/16 08:29:08;;;;;;;77.55;39.50;;;3.80;99.90;;;;;;4975378;28;20027;-87
2022/01/16 08:31:34;;;;;;;78.60;39.15;;;3.90;99.90;;;;;;4970580;28;20877;-87
2022/01/16 08:33:59;;;;;;;78.32;39.13;;;3.90;99.90;;;;;;4973964;28;20037;-88
2022/01/16 08:36:25;;;;;;;80.60;39.60;;;3.90;99.90;;;;;;4975661;28;20030;-88
2022/01/16 08:38:50;;;;;;;79.57;39.55;;;3.90;99.90;;;;;;4973533;28;20037;-87
2022/01/16 08:41:16;;;;;;;79.72;40.20;;;4.00;99.90;;;;;;4974205;28;20418;-87
2022/01/16 08:43:42;;;;;;;79.38;41.08;;;4.00;99.90;;;;;;4973500;28;20033;-87
2022/01/16 08:46:07;;;;;;;77.20;40.15;;;4.00;99.90;;;;;;4975627;28;20483;-88
2022/01/16 08:48:33;;;;;;;72.63;38.58;;;4.10;99.90;;;;;;4976494;28;20030;-88
2022/01/16 08:50:58;;;;;;;72.13;37.33;;;4.10;99.90;;;;;;4975347;28;20407;-88
2022/01/16 08:53:24;;;;;;;72.07;37.28;;;4.10;99.90;;;;;;4974488;28;20030;-88
2022/01/16 08:55:49;;;;;;;75.75;37.85;;;4.20;99.90;;;;;;4989492;28;20019;-87
2022/01/16 08:58:15;;;;;;;67.25;34.33;;;4.30;99.90;;;;;;4969028;28;20030;-88
2022/01/16 09:00:43;;;;;;;70.15;36.17;;;4.30;99.90;;;;;;4975158;28;20121;-88
2022/01/16 09:03:09;;;;;;;74.68;37.67;;;4.40;99.90;;;;;;4970513;28;21745;-88
2022/01/16 09:05:35;;;;;;;73.03;37.33;;;4.50;99.90;;;;;;4969157;28;20035;-87
2022/01/16 09:08:01;;;;;;;74.30;36.75;;;4.50;99.90;;;;;;4975470;28;20578;-89
2022/01/16 09:10:26;;;;;;;72.03;37.45;;;4.60;99.90;;;;;;4989105;28;20034;-89
2022/01/16 09:12:53;;;;;;;72.43;37.15;;;4.60;99.90;;;;;;4967379;28;20494;-89
2022/01/16 09:15:19;;;;;;;70.50;36.10;;;4.70;99.90;;;;;;4977509;28;20052;-87
2022/01/16 09:17:44;;;;;;;68.35;34.97;;;4.70;99.90;;;;;;4979066;28;20554;-87
2022/01/16 09:20:13;;;;;;;68.55;35.28;;;4.70;99.90;;;;;;4977645;28;20114;-87
2022/01/16 09:22:40;;;;;;;71.30;34.75;;;4.80;99.90;;;;;;4976512;28;20037;-86
2022/01/16 09:25:07;;;;;;;71.88;35.45;;;4.80;99.90;;;;;;4978500;28;20134;-87
2022/01/16 09:27:33;;;;;;;80.25;39.45;;;4.90;99.90;;;;;;4995407;28;20030;-86
2022/01/16 09:29:59;;;;;;;80.85;38.38;;;4.90;99.90;;;;;;4977685;28;20121;-87
2022/01/16 09:32:25;;;;;;;71.07;35.75;;;5.00;99.90;;;;;;4990898;28;20450;-86
2022/01/16 09:34:50;;;;;;;67.72;33.28;;;5.10;99.90;;;;;;4975522;28;20027;-86
2022/01/16 09:37:16;;;;;;;71.30;35.70;;;5.10;99.90;;;;;;4976176;28;20030;-87
2022/01/16 09:39:42;;;;;;;76.43;37.03;;;5.20;99.90;;;;;;4976431;28;20113;-85
2022/01/16 09:42:08;;;;;;;73.45;35.50;;;5.20;99.90;;;;;;4976021;28;20023;-86
2022/01/16 09:44:37;;;;;;;69.50;34.50;;;5.30;99.90;;;;;;4992455;28;20026;-87
2022/01/16 09:47:03;;;;;;;71.95;34.30;;;5.30;99.90;;;;;;4976191;28;20038;-86
2022/01/16 09:49:29;;;;;;;75.57;36.47;;;5.30;99.90;;;;;;4972100;28;20080;-87
2022/01/16 09:51:55;;;;;;;79.45;37.30;;;5.30;99.90;;;;;;4983105;28;20034;-86
2022/01/16 09:54:24;;;;;;;78.45;38.83;;;5.30;99.90;;;;;;4974900;28;20027;-85
2022/01/16 09:56:50;;;;;;;81.68;39.42;;;5.30;99.90;;;;;;4973771;28;20038;-87
2022/01/16 09:59:17;;;;;;;77.45;34.00;;;5.30;99.90;;;;;;4992476;28;20117;-87
2022/01/16 10:01:42;;;;;;;86.55;40.67;;;5.30;99.90;;;;;;4991025;28;20033;-87
2022/01/16 10:04:35;;;;;;;86.00;40.83;;;5.30;99.90;;;;;;4969730;28;20038;-86
2022/01/16 10:07:04;;;;;;;81.35;37.13;;;5.30;99.90;;;;;;4973432;28;20518;-86
2022/01/16 10:09:29;;;;;;;79.35;37.75;;;5.30;99.90;;;;;;4975766;28;20038;-87
2022/01/16 10:12:02;;;;;;;81.03;40.30;;;5.30;99.90;;;;;;4972336;28;20089;-87
2022/01/16 10:14:29;;;;;;;;;;;5.30;99.90;;;;;;4974215;28;20034;-86
2022/01/16 10:16:54;;;;;;;86.10;40.80;;;5.30;99.90;;;;;;4973440;28;19910;-85
2022/01/16 10:19:26;;;;;;;93.00;41.22;;;5.30;99.90;;;;;;4991122;28;20023;-87
2022/01/16 10:21:53;;;;;;;86.18;41.45;;;5.30;99.90;;;;;;4972094;28;20031;-87
2022/01/16 10:24:25;;;;;;;93.78;43.00;;;5.30;99.90;;;;;;4970253;28;20046;-87
2022/01/16 10:27:17;;;;;;;91.57;44.08;;;5.30;99.90;;;;;;4976902;28;20062;-87
2022/01/16 10:29:52;;;;;;;97.43;43.30;;;5.30;99.90;;;;;;4973556;28;20031;-87
2022/01/16 10:32:25;;;;;;;97.97;44.92;;;5.30;99.90;;;;;;4974530;28;20034;-86
2022/01/16 10:35:09;;;;;;;103.55;46.83;;;5.30;99.90;;;;;;4976943;28;20406;-87
2022/01/16 10:37:35;;;;;;;98.50;45.33;;;5.30;99.90;;;;;;4978037;28;20031;-87
2022/01/16 10:40:09;;;;;;;98.57;45.42;;;5.30;99.90;;;;;;4977956;28;20045;-87
2022/01/16 10:42:35;;;;;;;103.13;47.10;;;5.30;99.90;;;;;;4991730;28;20160;-87
2022/01/16 10:45:15;;;;;;;101.30;46.08;;;5.30;99.90;;;;;;4975267;28;20502;-87
2022/01/16 10:47:41;;;;;;;111.78;47.40;;;5.40;99.90;;;;;;4975871;28;20036;-87
2022/01/16 10:50:15;;;;;;;100.85;45.75;;;5.40;99.90;;;;;;4975943;28;20033;-86
2022/01/16 10:53:04;;;;;;;100.13;44.80;;;5.40;99.90;;;;;;4969625;28;20138;-87
2022/01/16 10:55:33;;;;;;;106.60;47.40;;;5.50;99.90;;;;;;4968103;28;20035;-88
2022/01/16 10:58:04;;;;;;;109.97;48.15;;;5.50;99.90;;;;;;4970392;28;20037;-88
2022/01/16 11:00:30;;;;;;;108.75;49.63;;;5.50;99.90;;;;;;4977083;28;20038;-87
2022/01/16 11:03:02;;;;;;;110.82;47.20;;;5.50;99.90;;;;;;4978056;28;20030;-87
2022/01/16 11:05:32;;;;;;;124.05;51.03;;;5.40;99.90;;;;;;4974641;28;20522;-87
2022/01/16 11:08:07;;;;;;;120.10;48.22;;;5.50;99.90;;;;;;4969149;28;20031;-87
2022/01/16 11:10:36;;;;;;;119.97;48.50;;;5.50;99.90;;;;;;4973844;28;20034;-87
2022/01/16 11:13:07;;;;;;;110.90;46.83;;;5.50;99.90;;;;;;4975983;28;20022;-88
2022/01/16 11:15:34;;;;;;;125.45;51.55;;;5.60;99.90;;;;;;4975634;28;20394;-87
2022/01/16 11:18:01;;;;;;;121.65;48.03;;;5.60;99.90;;;;;;4993621;28;20042;-87
2022/01/16 11:20:33;;;;;;;118.38;46.40;;;5.60;99.90;;;;;;4976313;28;21974;-87
2022/01/16 11:25:38;;;;;;;117.82;46.72;;;5.50;99.90;;;;;;4994260;28;20047;-87
2022/01/16 11:28:13;;;;;;;123.13;46.60;;;5.50;99.90;;;;;;4976692;28;20039;-87
2022/01/16 11:30:42;;;;;;;112.95;45.47;;;5.50;99.90;;;;;;4994027;28;20033;-87
2022/01/16 11:33:08;;;;;;;118.40;45.97;;;5.40;99.90;;;;;;4993686;28;20022;-87
2022/01/16 11:35:39;;;;;;;126.20;48.72;;;5.40;99.90;;;;;;4972390;28;20030;-87
2022/01/16 11:38:05;;;;;;;129.85;46.05;;;5.40;99.90;;;;;;4983029;28;20036;-86
2022/01/16 11:40:45;;;;;;;131.38;49.20;;;5.40;99.90;;;;;;4973481;28;20475;-87
2022/01/16 11:43:20;;;;;;;137.15;48.97;;;5.40;99.90;;;;;;4974760;28;20038;-87
2022/01/16 11:45:51;;;;;;;122.70;47.88;;;5.30;99.90;;;;;;4976575;28;20030;-87
2022/01/16 11:48:41;;;;;;;128.50;48.38;;;5.30;99.90;;;;;;4975734;28;20141;-87
2022/01/16 11:51:36;;;;;;;127.82;48.03;;;5.40;99.90;;;;;;4976821;28;20050;-86
2022/01/16 11:54:21;;;;;;;127.93;46.58;;;5.30;99.90;;;;;;4992990;28;20015;-89
2022/01/16 11:56:46;;;;;;;127.78;46.42;;;5.30;99.90;;;;;;4994222;28;20580;-87
2022/01/16 11:59:14;;;;;;;121.90;47.28;;;5.40;99.90;;;;;;5001691;28;20026;-87
2022/01/16 12:01:55;;;;;;;130.57;46.75;;;5.40;99.90;;;;;;4976858;28;20113;-88
2022/01/16 12:04:36;;;;;;;123.55;45.10;;;5.50;99.90;;;;;;4975148;28;20026;-89
2022/01/16 12:07:22;;;;;;;130.20;47.95;;;5.50;99.90;;;;;;4990712;28;20030;-88
2022/01/16 12:09:49;;;;;;;119.05;46.95;;;5.60;99.90;;;;;;4990439;28;20044;-87
2022/01/16 12:12:15;;;;;;;117.32;46.47;;;5.60;99.90;;;;;;4992683;28;20037;-89
2022/01/16 12:14:52;;;;;;;119.47;46.70;;;5.60;99.90;;;;;;4967825;28;20038;-87
2022/01/16 12:17:30;;;;;;;118.55;45.95;;;5.70;99.90;;;;;;4972857;28;20030;-87
2022/01/16 12:19:57;;;;;;;127.38;47.72;;;5.80;99.90;;;;;;4991893;28;20033;-87
2022/01/16 12:22:46;;;;;;;128.43;48.75;;;5.80;99.90;;;;;;4975371;28;20121;-87
2022/01/16 12:25:36;;;;;;;132.77;48.53;;;5.90;99.90;;;;;;4973286;28;20533;-88
2022/01/16 12:28:04;;;;;;;121.63;44.75;;;5.90;99.90;;;;;;4976339;28;20453;-86
2022/01/16 12:30:45;;;;;;;125.82;47.50;;;6.00;99.90;;;;;;4975556;28;20037;-88
2022/01/16 12:33:13;;;;;;;130.32;48.20;;;6.10;99.90;;;;;;4975634;28;20039;-87
2022/01/16 12:35:39;;;;;;;131.40;49.10;;;6.10;99.90;;;;;;4992185;28;20026;-88
2022/01/16 12:38:16;;;;;;;126.95;49.95;;;6.10;99.90;;;;;;4975926;28;20041;-88
2022/01/16 12:40:45;;;;;;;128.50;48.47;;;6.20;99.90;;;;;;4979376;28;20365;-88
2022/01/16 12:43:32;;;;;;;123.20;47.00;;;6.20;99.90;;;;;;4973023;28;20466;-86
2022/01/16 12:46:03;;;;;;;126.70;48.83;;;6.20;99.90;;;;;;4962058;28;20031;-88
2022/01/16 12:48:30;;;;;;;123.30;48.35;;;6.30;99.90;;;;;;4977585;28;20117;-87
2022/01/16 12:51:04;;;;;;;125.07;48.22;;;6.30;99.90;;;;;;4979944;28;20065;-88
2022/01/16 12:53:48;;;;;;;127.47;48.83;;;6.40;99.90;;;;;;4976223;28;20042;-88
2022/01/16 12:56:35;;;;;;;118.88;45.88;;;6.30;99.90;;;;;;4996371;28;20022;-87
2022/01/16 12:59:10;;;;;;;125.22;49.65;;;6.40;99.90;;;;;;4993012;28;20014;-88
2022/01/16 13:01:38;;;;;;;121.90;47.30;;;6.40;99.90;;;;;;4980069;28;20026;-87
2022/01/16 13:04:03;;;;;;;115.03;47.67;;;6.40;99.90;;;;;;4979581;28;20587;-87
2022/01/16 13:06:34;;;;;;;124.47;47.08;;;6.30;99.90;;;;;;4979937;28;20117;-88
2022/01/16 13:09:02;;;;;;;123.10;49.60;;;6.40;99.90;;;;;;4979529;28;20042;-88
2022/01/16 13:11:40;;;;;;;118.38;47.78;;;6.40;99.90;;;;;;4979776;28;20033;-86
2022/01/16 13:14:08;;;;;;;111.53;45.22;;;6.40;99.90;;;;;;4990331;28;20040;-87
2022/01/16 13:16:39;;;;;;;108.05;45.25;;;6.40;99.90;;;;;;4969042;28;20478;-88
2022/01/16 13:19:13;;;;;;;100.97;43.95;;;6.40;99.90;;;;;;4978600;28;20062;-87
2022/01/16 13:22:13;;;;;;;114.63;44.72;;;6.40;99.90;;;;;;4979186;28;20030;-87